sensor_id;sensor_type;location;lat;lon;timestamp;P1;durP1;ratioP1;P2;durP2;ratioP2
2544;SDS011;36212;48.838;9.142;2022-07-01T00:00:06;1.30;;;1.20;;
2544;SDS011;36212;48.838;9.142;2022-07-01T00:02:40;1.70;;;1.60;;
2544;SDS011;36212;48.838;9.142;2022-07-01T00:05:12;1.65;;;1.20;;
2544;SDS011;36212;48.838;9.142;2022-07-01T00:07:45;1.25;;;1.00;;
2544;SDS011;36212;48.838;9.142;2022-07-01T00:10:18;1.30;;;1.20;;
2544;SDS011;36212;48.838;9.142;2022-07-01T00:12:51;1.90;;;1.33;;
2544;SDS011;36212;48.838;9.142;2022-07-01T00:15:23;1.70;;;1.30;;
2544;SDS011;36212;48.838;9.142;2022-07-01T00:17:55;1.40;;;1.30;;
2544;SDS011;36212;48.838;9.142;2022-07-01T00:20:28;2.28;;;1.38;;
2544;SDS011;36212;48.838;9.142;2022-07-01T00:23:01;1.40;;;1.30;;
2544;SDS011;36212;48.838;9.142;2022-07-01T00:25:33;1.10;;;1.10;;
2544;SDS011;36212;48.838;9.142;2022-07-01T00:28:05;2.58;;;1.00;;
2544;SDS011;36212;48.838;9.142;2022-07-01T00:30:37;1.30;;;1.20;;
2544;SDS011;36212;48.838;9.142;2022-07-01T00:33:09;1.50;;;1.40;;
2544;SDS011;36212;48.838;9.142;2022-07-01T00:35:41;1.25;;;1.15;;
2544;SDS011;36212;48.838;9.142;2022-07-01T00:38:14;2.50;;;1.45;;
2544;SDS011;36212;48.838;9.142;2022-07-01T00:40:53;1.75;;;1.23;;
2544;SDS011;36212;48.838;9.142;2022-07-01T00:43:26;1.50;;;1.20;;
2544;SDS011;36212;48.838;9.142;2022-07-01T00:46:18;2.40;;;1.30;;
2544;SDS011;36212;48.838;9.142;2022-07-01T00:48:56;1.30;;;1.20;;
2544;SDS011;36212;48.838;9.142;2022-07-01T00:51:30;1.30;;;1.20;;
2544;SDS011;36212;48.838;9.142;2022-07-01T00:54:02;1.30;;;1.20;;
2544;SDS011;36212;48.838;9.142;2022-07-01T00:56:35;1.40;;;1.30;;
2544;SDS011;36212;48.838;9.142;2022-07-01T00:59:07;2.45;;;1.30;;
2544;SDS011;36212;48.838;9.142;2022-07-01T01:01:40;1.70;;;1.20;;
2544;SDS011;36212;48.838;9.142;2022-07-01T01:04:12;1.38;;;1.27;;
2544;SDS011;36212;48.838;9.142;2022-07-01T01:06:44;2.78;;;1.30;;
2544;SDS011;36212;48.838;9.142;2022-07-01T01:09:16;1.48;;;1.30;;
2544;SDS011;36212;48.838;9.142;2022-07-01T01:11:48;1.30;;;1.20;;
2544;SDS011;36212;48.838;9.142;2022-07-01T01:14:21;2.13;;;1.50;;
2544;SDS011;36212;48.838;9.142;2022-07-01T01:16:54;1.20;;;1.10;;
2544;SDS011;36212;48.838;9.142;2022-07-01T01:19:26;1.50;;;1.40;;
2544;SDS011;36212;48.838;9.142;2022-07-01T01:21:59;1.33;;;1.23;;
2544;SDS011;36212;48.838;9.142;2022-07-01T01:24:31;1.45;;;1.30;;
2544;SDS011;36212;48.838;9.142;2022-07-01T01:27:04;1.40;;;1.30;;
2544;SDS011;36212;48.838;9.142;2022-07-01T01:29:37;1.30;;;1.20;;
2544;SDS011;36212;48.838;9.142;2022-07-01T01:32:09;1.30;;;1.20;;
2544;SDS011;36212;48.838;9.142;2022-07-01T01:34:42;2.30;;;1.40;;
2544;SDS011;36212;48.838;9.142;2022-07-01T01:37:18;1.35;;;1.25;;
2544;SDS011;36212;48.838;9.142;2022-07-01T01:39:50;1.60;;;1.50;;
2544;SDS011;36212;48.838;9.142;2022-07-01T01:42:22;1.48;;;1.38;;
2544;SDS011;36212;48.838;9.142;2022-07-01T01:44:54;1.83;;;1.65;;
2544;SDS011;36212;48.838;9.142;2022-07-01T01:47:27;1.40;;;1.30;;
2544;SDS011;36212;48.838;9.142;2022-07-01T01:50:01;1.80;;;1.50;;
2544;SDS011;36212;48.838;9.142;2022-07-01T01:52:37;1.50;;;1.40;;
2544;SDS011;36212;48.838;9.142;2022-07-01T01:55:13;1.63;;;1.52;;
2544;SDS011;36212;48.838;9.142;2022-07-01T01:57:45;1.50;;;1.40;;
2544;SDS011;36212;48.838;9.142;2022-07-01T02:02:52;1.60;;;1.50;;
2544;SDS011;36212;48.838;9.142;2022-07-01T02:05:25;1.40;;;1.30;;
2544;SDS011;36212;48.838;9.142;2022-07-01T02:07:57;1.83;;;1.73;;
2544;SDS011;36212;48.838;9.142;2022-07-01T02:10:29;1.90;;;1.65;;
2544;SDS011;36212;48.838;9.142;2022-07-01T02:13:01;1.60;;;1.50;;
2544;SDS011;36212;48.838;9.142;2022-07-01T02:15:33;1.80;;;1.70;;
2544;SDS011;36212;48.838;9.142;2022-07-01T02:18:05;1.70;;;1.60;;
2544;SDS011;36212;48.838;9.142;2022-07-01T02:20:37;1.70;;;1.60;;
2544;SDS011;36212;48.838;9.142;2022-07-01T02:23:10;1.83;;;1.73;;
2544;SDS011;36212;48.838;9.142;2022-07-01T02:25:42;2.03;;;1.58;;
2544;SDS011;36212;48.838;9.142;2022-07-01T02:28:14;1.92;;;1.70;;
2544;SDS011;36212;48.838;9.142;2022-07-01T02:30:46;2.17;;;2.08;;
2544;SDS011;36212;48.838;9.142;2022-07-01T02:33:19;1.60;;;1.50;;
2544;SDS011;36212;48.838;9.142;2022-07-01T02:35:51;1.83;;;1.73;;
2544;SDS011;36212;48.838;9.142;2022-07-01T02:38:23;1.85;;;1.75;;
2544;SDS011;36212;48.838;9.142;2022-07-01T02:40:56;2.00;;;1.90;;
2544;SDS011;36212;48.838;9.142;2022-07-01T02:43:28;1.80;;;1.70;;
2544;SDS011;36212;48.838;9.142;2022-07-01T02:46:01;1.73;;;1.63;;
2544;SDS011;36212;48.838;9.142;2022-07-01T02:48:33;1.70;;;1.60;;
2544;SDS011;36212;48.838;9.142;2022-07-01T02:51:05;2.05;;;1.52;;
2544;SDS011;36212;48.838;9.142;2022-07-01T02:53:37;1.55;;;1.45;;
2544;SDS011;36212;48.838;9.142;2022-07-01T02:56:22;1.40;;;1.30;;
2544;SDS011;36212;48.838;9.142;2022-07-01T02:58:54;1.60;;;1.50;;
2544;SDS011;36212;48.838;9.142;2022-07-01T03:01:26;1.88;;;1.77;;
2544;SDS011;36212;48.838;9.142;2022-07-01T03:03:58;1.83;;;1.73;;
2544;SDS011;36212;48.838;9.142;2022-07-01T03:06:31;1.70;;;1.60;;
2544;SDS011;36212;48.838;9.142;2022-07-01T03:09:03;1.50;;;1.40;;
2544;SDS011;36212;48.838;9.142;2022-07-01T03:11:34;1.52;;;1.42;;
2544;SDS011;36212;48.838;9.142;2022-07-01T03:14:06;2.00;;;1.33;;
2544;SDS011;36212;48.838;9.142;2022-07-01T03:16:39;1.50;;;1.40;;
2544;SDS011;36212;48.838;9.142;2022-07-01T03:19:11;1.77;;;1.67;;
2544;SDS011;36212;48.838;9.142;2022-07-01T03:21:44;1.85;;;1.65;;
2544;SDS011;36212;48.838;9.142;2022-07-01T03:24:17;1.77;;;1.67;;
2544;SDS011;36212;48.838;9.142;2022-07-01T03:26:49;1.55;;;1.45;;
2544;SDS011;36212;48.838;9.142;2022-07-01T03:29:21;2.95;;;1.52;;
2544;SDS011;36212;48.838;9.142;2022-07-01T03:31:53;1.90;;;1.73;;
2544;SDS011;36212;48.838;9.142;2022-07-01T03:34:25;1.73;;;1.63;;
2544;SDS011;36212;48.838;9.142;2022-07-01T03:36:57;2.17;;;2.08;;
2544;SDS011;36212;48.838;9.142;2022-07-01T03:39:30;1.90;;;1.80;;
2544;SDS011;36212;48.838;9.142;2022-07-01T03:42:03;1.90;;;1.70;;
2544;SDS011;36212;48.838;9.142;2022-07-01T03:44:37;1.85;;;1.75;;
2544;SDS011;36212;48.838;9.142;2022-07-01T03:47:10;1.50;;;1.40;;
2544;SDS011;36212;48.838;9.142;2022-07-01T03:49:43;1.70;;;1.60;;
2544;SDS011;36212;48.838;9.142;2022-07-01T03:52:15;1.83;;;1.73;;
2544;SDS011;36212;48.838;9.142;2022-07-01T03:54:47;1.88;;;1.77;;
2544;SDS011;36212;48.838;9.142;2022-07-01T03:57:19;2.00;;;1.70;;
2544;SDS011;36212;48.838;9.142;2022-07-01T03:59:52;2.00;;;1.90;;
2544;SDS011;36212;48.838;9.142;2022-07-01T04:02:25;2.13;;;2.03;;
2544;SDS011;36212;48.838;9.142;2022-07-01T04:04:57;1.88;;;1.77;;
2544;SDS011;36212;48.838;9.142;2022-07-01T04:07:29;2.35;;;2.15;;
2544;SDS011;36212;48.838;9.142;2022-07-01T04:10:01;2.25;;;2.15;;
2544;SDS011;36212;48.838;9.142;2022-07-01T04:12:34;1.98;;;1.88;;
2544;SDS011;36212;48.838;9.142;2022-07-01T04:15:06;2.05;;;1.95;;
2544;SDS011;36212;48.838;9.142;2022-07-01T04:17:40;2.20;;;2.10;;
2544;SDS011;36212;48.838;9.142;2022-07-01T04:20:13;1.85;;;1.75;;
2544;SDS011;36212;48.838;9.142;2022-07-01T04:22:46;2.25;;;1.85;;
2544;SDS011;36212;48.838;9.142;2022-07-01T04:25:18;2.00;;;1.90;;
2544;SDS011;36212;48.838;9.142;2022-07-01T04:27:50;2.20;;;2.10;;
2544;SDS011;36212;48.838;9.142;2022-07-01T04:30:22;2.30;;;2.08;;
2544;SDS011;36212;48.838;9.142;2022-07-01T04:32:54;2.75;;;2.55;;
2544;SDS011;36212;48.838;9.142;2022-07-01T04:35:27;4.65;;;2.20;;
2544;SDS011;36212;48.838;9.142;2022-07-01T04:37:59;2.20;;;2.10;;
2544;SDS011;36212;48.838;9.142;2022-07-01T04:40:31;2.47;;;2.38;;
2544;SDS011;36212;48.838;9.142;2022-07-01T04:43:03;2.47;;;2.30;;
2544;SDS011;36212;48.838;9.142;2022-07-01T04:45:35;2.05;;;1.90;;
2544;SDS011;36212;48.838;9.142;2022-07-01T04:48:07;2.40;;;2.20;;
2544;SDS011;36212;48.838;9.142;2022-07-01T04:50:39;2.47;;;2.28;;
2544;SDS011;36212;48.838;9.142;2022-07-01T04:53:12;2.10;;;2.00;;
2544;SDS011;36212;48.838;9.142;2022-07-01T04:55:45;2.25;;;2.15;;
2544;SDS011;36212;48.838;9.142;2022-07-01T04:58:17;2.08;;;1.98;;
2544;SDS011;36212;48.838;9.142;2022-07-01T05:01:04;2.30;;;1.75;;
2544;SDS011;36212;48.838;9.142;2022-07-01T05:03:36;2.33;;;2.22;;
2544;SDS011;36212;48.838;9.142;2022-07-01T05:06:09;2.75;;;2.45;;
2544;SDS011;36212;48.838;9.142;2022-07-01T05:08:41;2.00;;;1.90;;
2544;SDS011;36212;48.838;9.142;2022-07-01T05:11:13;2.30;;;2.20;;
2544;SDS011;36212;48.838;9.142;2022-07-01T05:13:46;2.53;;;2.00;;
2544;SDS011;36212;48.838;9.142;2022-07-01T05:16:18;2.22;;;2.10;;
2544;SDS011;36212;48.838;9.142;2022-07-01T05:18:50;2.30;;;2.15;;
2544;SDS011;36212;48.838;9.142;2022-07-01T05:22:01;2.00;;;1.90;;
2544;SDS011;36212;48.838;9.142;2022-07-01T05:27:56;2.53;;;2.33;;
2544;SDS011;36212;48.838;9.142;2022-07-01T05:30:28;4.25;;;2.70;;
2544;SDS011;36212;48.838;9.142;2022-07-01T05:33:00;2.95;;;2.13;;
2544;SDS011;36212;48.838;9.142;2022-07-01T05:35:32;3.40;;;3.20;;
2544;SDS011;36212;48.838;9.142;2022-07-01T05:38:04;3.00;;;2.70;;
2544;SDS011;36212;48.838;9.142;2022-07-01T05:40:37;3.53;;;3.22;;
2544;SDS011;36212;48.838;9.142;2022-07-01T05:43:09;5.80;;;3.40;;
2544;SDS011;36212;48.838;9.142;2022-07-01T05:45:41;2.60;;;2.40;;
2544;SDS011;36212;48.838;9.142;2022-07-01T05:48:14;3.00;;;2.80;;
2544;SDS011;36212;48.838;9.142;2022-07-01T05:50:46;2.53;;;2.33;;
2544;SDS011;36212;48.838;9.142;2022-07-01T05:53:25;2.50;;;2.35;;
2544;SDS011;36212;48.838;9.142;2022-07-01T05:56:03;3.67;;;3.25;;
2544;SDS011;36212;48.838;9.142;2022-07-01T05:58:35;3.30;;;2.78;;
2544;SDS011;36212;48.838;9.142;2022-07-01T06:01:07;3.50;;;3.08;;
2544;SDS011;36212;48.838;9.142;2022-07-01T06:03:40;3.10;;;2.80;;
2544;SDS011;36212;48.838;9.142;2022-07-01T06:06:12;3.65;;;2.72;;
2544;SDS011;36212;48.838;9.142;2022-07-01T06:08:45;3.03;;;2.83;;
2544;SDS011;36212;48.838;9.142;2022-07-01T06:11:17;3.45;;;3.22;;
2544;SDS011;36212;48.838;9.142;2022-07-01T06:13:50;4.47;;;3.05;;
2544;SDS011;36212;48.838;9.142;2022-07-01T06:16:22;3.00;;;2.70;;
2544;SDS011;36212;48.838;9.142;2022-07-01T06:19:01;4.95;;;3.28;;
2544;SDS011;36212;48.838;9.142;2022-07-01T06:21:35;3.30;;;3.00;;
2544;SDS011;36212;48.838;9.142;2022-07-01T06:24:08;3.22;;;2.92;;
2544;SDS011;36212;48.838;9.142;2022-07-01T06:26:40;3.67;;;3.20;;
2544;SDS011;36212;48.838;9.142;2022-07-01T06:29:12;3.35;;;2.50;;
2544;SDS011;36212;48.838;9.142;2022-07-01T06:31:45;3.08;;;2.88;;
2544;SDS011;36212;48.838;9.142;2022-07-01T06:34:17;3.13;;;2.83;;
2544;SDS011;36212;48.838;9.142;2022-07-01T06:36:49;2.55;;;2.45;;
2544;SDS011;36212;48.838;9.142;2022-07-01T06:39:21;2.80;;;2.53;;
2544;SDS011;36212;48.838;9.142;2022-07-01T06:45:25;2.65;;;2.45;;
2544;SDS011;36212;48.838;9.142;2022-07-01T06:47:57;3.40;;;3.08;;
2544;SDS011;36212;48.838;9.142;2022-07-01T06:50:30;3.20;;;2.80;;
2544;SDS011;36212;48.838;9.142;2022-07-01T06:53:02;3.40;;;3.20;;
2544;SDS011;36212;48.838;9.142;2022-07-01T06:55:34;3.40;;;3.20;;
2544;SDS011;36212;48.838;9.142;2022-07-01T06:58:06;5.05;;;3.67;;
2544;SDS011;36212;48.838;9.142;2022-07-01T07:00:39;3.00;;;2.80;;
2544;SDS011;36212;48.838;9.142;2022-07-01T07:03:12;3.40;;;3.10;;
2544;SDS011;36212;48.838;9.142;2022-07-01T07:05:44;3.75;;;3.45;;
2544;SDS011;36212;48.838;9.142;2022-07-01T07:08:16;3.20;;;3.00;;
2544;SDS011;36212;48.838;9.142;2022-07-01T07:10:54;3.40;;;3.20;;
2544;SDS011;36212;48.838;9.142;2022-07-01T07:13:26;2.70;;;2.50;;
2544;SDS011;36212;48.838;9.142;2022-07-01T07:15:58;3.38;;;3.00;;
2544;SDS011;36212;48.838;9.142;2022-07-01T07:18:30;2.50;;;2.40;;
2544;SDS011;36212;48.838;9.142;2022-07-01T07:21:03;2.70;;;2.60;;
2544;SDS011;36212;48.838;9.142;2022-07-01T07:23:35;2.90;;;2.70;;
2544;SDS011;36212;48.838;9.142;2022-07-01T07:26:07;2.60;;;2.50;;
2544;SDS011;36212;48.838;9.142;2022-07-01T07:28:40;3.10;;;2.80;;
2544;SDS011;36212;48.838;9.142;2022-07-01T07:31:14;3.35;;;3.00;;
2544;SDS011;36212;48.838;9.142;2022-07-01T07:33:47;3.13;;;2.92;;
2544;SDS011;36212;48.838;9.142;2022-07-01T07:36:19;3.20;;;3.00;;
2544;SDS011;36212;48.838;9.142;2022-07-01T07:38:51;3.22;;;3.03;;
2544;SDS011;36212;48.838;9.142;2022-07-01T07:41:23;2.63;;;2.53;;
2544;SDS011;36212;48.838;9.142;2022-07-01T07:43:55;4.45;;;3.00;;
2544;SDS011;36212;48.838;9.142;2022-07-01T07:46:27;2.95;;;2.75;;
2544;SDS011;36212;48.838;9.142;2022-07-01T07:48:59;3.25;;;3.05;;
2544;SDS011;36212;48.838;9.142;2022-07-01T07:51:32;2.92;;;2.72;;
2544;SDS011;36212;48.838;9.142;2022-07-01T07:54:04;3.45;;;2.55;;
2544;SDS011;36212;48.838;9.142;2022-07-01T07:56:37;4.05;;;3.08;;
2544;SDS011;36212;48.838;9.142;2022-07-01T07:59:15;2.35;;;2.25;;
2544;SDS011;36212;48.838;9.142;2022-07-01T08:01:47;4.80;;;2.80;;
2544;SDS011;36212;48.838;9.142;2022-07-01T08:04:20;2.80;;;2.70;;
2544;SDS011;36212;48.838;9.142;2022-07-01T08:06:52;2.80;;;2.60;;
2544;SDS011;36212;48.838;9.142;2022-07-01T08:09:26;2.47;;;2.38;;
2544;SDS011;36212;48.838;9.142;2022-07-01T08:11:58;2.80;;;2.60;;
2544;SDS011;36212;48.838;9.142;2022-07-01T08:14:31;3.15;;;2.95;;
2544;SDS011;36212;48.838;9.142;2022-07-01T08:17:04;3.03;;;2.92;;
2544;SDS011;36212;48.838;9.142;2022-07-01T08:19:36;3.25;;;3.05;;
2544;SDS011;36212;48.838;9.142;2022-07-01T08:22:08;3.00;;;2.80;;
2544;SDS011;36212;48.838;9.142;2022-07-01T08:24:40;3.60;;;3.30;;
2544;SDS011;36212;48.838;9.142;2022-07-01T08:27:13;3.45;;;3.25;;
2544;SDS011;36212;48.838;9.142;2022-07-01T08:29:45;3.40;;;3.20;;
2544;SDS011;36212;48.838;9.142;2022-07-01T08:32:17;3.75;;;3.50;;
2544;SDS011;36212;48.838;9.142;2022-07-01T08:34:52;3.50;;;3.30;;
2544;SDS011;36212;48.838;9.142;2022-07-01T08:37:25;3.25;;;3.05;;
2544;SDS011;36212;48.838;9.142;2022-07-01T08:39:57;3.33;;;3.13;;
2544;SDS011;36212;48.838;9.142;2022-07-01T08:42:30;3.05;;;2.92;;
2544;SDS011;36212;48.838;9.142;2022-07-01T08:45:02;3.10;;;2.90;;
2544;SDS011;36212;48.838;9.142;2022-07-01T08:47:48;3.20;;;3.00;;
2544;SDS011;36212;48.838;9.142;2022-07-01T08:50:26;3.13;;;2.92;;
2544;SDS011;36212;48.838;9.142;2022-07-01T08:53:14;2.90;;;2.70;;
2544;SDS011;36212;48.838;9.142;2022-07-01T08:55:47;3.50;;;3.30;;
2544;SDS011;36212;48.838;9.142;2022-07-01T08:58:57;3.10;;;2.90;;
2544;SDS011;36212;48.838;9.142;2022-07-01T09:01:29;3.15;;;2.95;;
2544;SDS011;36212;48.838;9.142;2022-07-01T09:04:15;3.55;;;3.25;;
2544;SDS011;36212;48.838;9.142;2022-07-01T09:06:51;3.78;;;2.85;;
2544;SDS011;36212;48.838;9.142;2022-07-01T09:09:38;5.07;;;3.47;;
2544;SDS011;36212;48.838;9.142;2022-07-01T09:12:21;3.50;;;3.20;;
2544;SDS011;36212;48.838;9.142;2022-07-01T09:20:46;2.90;;;2.70;;
2544;SDS011;36212;48.838;9.142;2022-07-01T09:23:19;2.30;;;2.20;;
2544;SDS011;36212;48.838;9.142;2022-07-01T09:25:51;2.50;;;2.30;;
2544;SDS011;36212;48.838;9.142;2022-07-01T09:28:27;2.40;;;2.20;;
2544;SDS011;36212;48.838;9.142;2022-07-01T09:30:59;2.40;;;2.20;;
2544;SDS011;36212;48.838;9.142;2022-07-01T09:33:31;2.30;;;2.20;;
2544;SDS011;36212;48.838;9.142;2022-07-01T09:36:04;2.70;;;1.98;;
2544;SDS011;36212;48.838;9.142;2022-07-01T09:38:36;2.50;;;2.30;;
2544;SDS011;36212;48.838;9.142;2022-07-01T09:41:22;2.47;;;2.28;;
2544;SDS011;36212;48.838;9.142;2022-07-01T09:43:56;2.25;;;1.95;;
2544;SDS011;36212;48.838;9.142;2022-07-01T09:46:37;2.13;;;2.03;;
2544;SDS011;36212;48.838;9.142;2022-07-01T09:49:22;2.30;;;2.20;;
2544;SDS011;36212;48.838;9.142;2022-07-01T09:51:55;2.22;;;2.13;;
2544;SDS011;36212;48.838;9.142;2022-07-01T09:54:28;2.60;;;2.35;;
2544;SDS011;36212;48.838;9.142;2022-07-01T09:57:00;2.70;;;2.50;;
2544;SDS011;36212;48.838;9.142;2022-07-01T09:59:34;2.72;;;2.50;;
2544;SDS011;36212;48.838;9.142;2022-07-01T10:02:08;2.70;;;2.50;;
2544;SDS011;36212;48.838;9.142;2022-07-01T10:04:49;2.45;;;2.35;;
2544;SDS011;36212;48.838;9.142;2022-07-01T10:13:31;2.70;;;2.60;;
2544;SDS011;36212;48.838;9.142;2022-07-01T10:16:04;2.75;;;2.40;;
2544;SDS011;36212;48.838;9.142;2022-07-01T10:18:37;2.55;;;2.35;;
2544;SDS011;36212;48.838;9.142;2022-07-01T10:21:10;2.35;;;2.25;;
2544;SDS011;36212;48.838;9.142;2022-07-01T10:24:13;2.15;;;2.05;;
2544;SDS011;36212;48.838;9.142;2022-07-01T10:26:50;2.72;;;2.53;;
2544;SDS011;36212;48.838;9.142;2022-07-01T10:32:46;2.60;;;2.28;;
2544;SDS011;36212;48.838;9.142;2022-07-01T10:35:37;12.37;;;2.80;;
2544;SDS011;36212;48.838;9.142;2022-07-01T10:38:19;2.33;;;2.13;;
2544;SDS011;36212;48.838;9.142;2022-07-01T10:40:53;2.00;;;1.90;;
2544;SDS011;36212;48.838;9.142;2022-07-01T10:43:32;2.07;;;1.87;;
2544;SDS011;36212;48.838;9.142;2022-07-01T10:46:06;1.90;;;1.80;;
2544;SDS011;36212;48.838;9.142;2022-07-01T10:48:38;2.10;;;1.90;;
2544;SDS011;36212;48.838;9.142;2022-07-01T11:02:50;2.50;;;2.10;;
2544;SDS011;36212;48.838;9.142;2022-07-01T11:05:34;2.23;;;2.03;;
2544;SDS011;36212;48.838;9.142;2022-07-01T11:08:08;1.90;;;1.80;;
2544;SDS011;36212;48.838;9.142;2022-07-01T11:10:43;2.20;;;2.10;;
2544;SDS011;36212;48.838;9.142;2022-07-01T11:13:20;1.97;;;1.83;;
2544;SDS011;36212;48.838;9.142;2022-07-01T11:15:52;2.37;;;1.83;;
2544;SDS011;36212;48.838;9.142;2022-07-01T11:18:26;2.43;;;2.07;;
2544;SDS011;36212;48.838;9.142;2022-07-01T11:21:06;1.87;;;1.67;;
2544;SDS011;36212;48.838;9.142;2022-07-01T11:23:41;2.50;;;1.80;;
2544;SDS011;36212;48.838;9.142;2022-07-01T11:26:24;2.23;;;2.03;;
2544;SDS011;36212;48.838;9.142;2022-07-01T11:28:57;2.13;;;2.03;;
2544;SDS011;36212;48.838;9.142;2022-07-01T11:31:29;3.63;;;2.00;;
2544;SDS011;36212;48.838;9.142;2022-07-01T11:34:03;2.43;;;1.90;;
2544;SDS011;36212;48.838;9.142;2022-07-01T11:36:37;1.70;;;1.60;;
2544;SDS011;36212;48.838;9.142;2022-07-01T11:40:03;1.70;;;1.60;;
2544;SDS011;36212;48.838;9.142;2022-07-01T11:42:42;3.10;;;1.80;;
2544;SDS011;36212;48.838;9.142;2022-07-01T11:45:23;1.67;;;1.57;;
2544;SDS011;36212;48.838;9.142;2022-07-01T11:47:57;1.80;;;1.70;;
2544;SDS011;36212;48.838;9.142;2022-07-01T11:50:29;1.70;;;1.60;;
2544;SDS011;36212;48.838;9.142;2022-07-01T11:53:06;2.20;;;1.83;;
2544;SDS011;36212;48.838;9.142;2022-07-01T11:55:43;1.83;;;1.73;;
2544;SDS011;36212;48.838;9.142;2022-07-01T11:58:17;1.90;;;1.73;;
2544;SDS011;36212;48.838;9.142;2022-07-01T12:00:49;3.10;;;2.00;;
2544;SDS011;36212;48.838;9.142;2022-07-01T12:06:52;1.93;;;1.83;;
2544;SDS011;36212;48.838;9.142;2022-07-01T12:09:24;3.03;;;1.83;;
2544;SDS011;36212;48.838;9.142;2022-07-01T12:11:57;2.13;;;1.87;;
2544;SDS011;36212;48.838;9.142;2022-07-01T12:14:31;2.80;;;2.33;;
2544;SDS011;36212;48.838;9.142;2022-07-01T12:17:07;2.33;;;1.80;;
2544;SDS011;36212;48.838;9.142;2022-07-01T12:19:46;1.93;;;1.83;;
2544;SDS011;36212;48.838;9.142;2022-07-01T12:22:20;1.90;;;1.80;;
2544;SDS011;36212;48.838;9.142;2022-07-01T12:25:10;1.73;;;1.63;;
2544;SDS011;36212;48.838;9.142;2022-07-01T12:27:44;1.50;;;1.40;;
2544;SDS011;36212;48.838;9.142;2022-07-01T12:30:22;1.83;;;1.73;;
2544;SDS011;36212;48.838;9.142;2022-07-01T12:33:12;2.30;;;1.93;;
2544;SDS011;36212;48.838;9.142;2022-07-01T12:35:48;1.70;;;1.60;;
2544;SDS011;36212;48.838;9.142;2022-07-01T12:38:20;1.70;;;1.60;;
2544;SDS011;36212;48.838;9.142;2022-07-01T12:40:52;1.90;;;1.80;;
2544;SDS011;36212;48.838;9.142;2022-07-01T12:43:29;2.20;;;2.10;;
2544;SDS011;36212;48.838;9.142;2022-07-01T12:46:07;1.63;;;1.53;;
2544;SDS011;36212;48.838;9.142;2022-07-01T12:48:59;1.93;;;1.83;;
2544;SDS011;36212;48.838;9.142;2022-07-01T12:51:31;1.60;;;1.50;;
2544;SDS011;36212;48.838;9.142;2022-07-01T12:54:04;1.57;;;1.47;;
2544;SDS011;36212;48.838;9.142;2022-07-01T12:56:36;1.60;;;1.50;;
2544;SDS011;36212;48.838;9.142;2022-07-01T12:59:09;1.83;;;1.60;;
2544;SDS011;36212;48.838;9.142;2022-07-01T13:01:41;1.60;;;1.50;;
2544;SDS011;36212;48.838;9.142;2022-07-01T13:04:33;1.60;;;1.50;;
2544;SDS011;36212;48.838;9.142;2022-07-01T13:07:06;3.23;;;1.80;;
2544;SDS011;36212;48.838;9.142;2022-07-01T13:09:38;1.47;;;1.37;;
2544;SDS011;36212;48.838;9.142;2022-07-01T13:12:11;1.70;;;1.60;;
2544;SDS011;36212;48.838;9.142;2022-07-01T13:14:44;1.83;;;1.73;;
2544;SDS011;36212;48.838;9.142;2022-07-01T13:17:16;4.97;;;1.60;;
2544;SDS011;36212;48.838;9.142;2022-07-01T13:22:37;1.80;;;1.70;;
2544;SDS011;36212;48.838;9.142;2022-07-01T13:25:09;1.80;;;1.70;;
2544;SDS011;36212;48.838;9.142;2022-07-01T13:27:44;2.10;;;1.53;;
2544;SDS011;36212;48.838;9.142;2022-07-01T13:30:17;1.60;;;1.50;;
2544;SDS011;36212;48.838;9.142;2022-07-01T13:32:49;2.03;;;1.50;;
2544;SDS011;36212;48.838;9.142;2022-07-01T13:35:25;2.93;;;1.50;;
2544;SDS011;36212;48.838;9.142;2022-07-01T13:37:58;6.53;;;1.53;;
2544;SDS011;36212;48.838;9.142;2022-07-01T13:40:30;1.70;;;1.60;;
2544;SDS011;36212;48.838;9.142;2022-07-01T13:43:03;1.50;;;1.40;;
2544;SDS011;36212;48.838;9.142;2022-07-01T13:45:35;1.70;;;1.60;;
2544;SDS011;36212;48.838;9.142;2022-07-01T13:48:07;1.80;;;1.70;;
2544;SDS011;36212;48.838;9.142;2022-07-01T13:50:40;2.10;;;1.90;;
2544;SDS011;36212;48.838;9.142;2022-07-01T13:53:12;1.93;;;1.83;;
2544;SDS011;36212;48.838;9.142;2022-07-01T13:55:44;2.40;;;2.20;;
2544;SDS011;36212;48.838;9.142;2022-07-01T13:58:16;2.37;;;2.00;;
2544;SDS011;36212;48.838;9.142;2022-07-01T14:00:48;2.17;;;1.97;;
2544;SDS011;36212;48.838;9.142;2022-07-01T14:03:21;2.13;;;1.80;;
2544;SDS011;36212;48.838;9.142;2022-07-01T14:05:53;2.03;;;1.87;;
2544;SDS011;36212;48.838;9.142;2022-07-01T14:08:26;3.00;;;2.00;;
2544;SDS011;36212;48.838;9.142;2022-07-01T14:10:58;1.93;;;1.83;;
2544;SDS011;36212;48.838;9.142;2022-07-01T14:13:31;2.70;;;1.70;;
2544;SDS011;36212;48.838;9.142;2022-07-01T14:16:04;2.73;;;2.40;;
2544;SDS011;36212;48.838;9.142;2022-07-01T14:18:38;1.73;;;1.63;;
2544;SDS011;36212;48.838;9.142;2022-07-01T14:21:17;1.87;;;1.77;;
2544;SDS011;36212;48.838;9.142;2022-07-01T14:26:41;1.77;;;1.67;;
2544;SDS011;36212;48.838;9.142;2022-07-01T14:29:13;1.83;;;1.73;;
2544;SDS011;36212;48.838;9.142;2022-07-01T14:31:46;3.53;;;1.90;;
2544;SDS011;36212;48.838;9.142;2022-07-01T14:34:19;1.87;;;1.77;;
2544;SDS011;36212;48.838;9.142;2022-07-01T14:36:51;2.20;;;2.00;;
2544;SDS011;36212;48.838;9.142;2022-07-01T14:39:23;1.90;;;1.80;;
2544;SDS011;36212;48.838;9.142;2022-07-01T14:41:55;1.50;;;1.40;;
2544;SDS011;36212;48.838;9.142;2022-07-01T14:44:28;1.93;;;1.83;;
2544;SDS011;36212;48.838;9.142;2022-07-01T14:47:00;2.53;;;1.60;;
2544;SDS011;36212;48.838;9.142;2022-07-01T14:49:33;1.63;;;1.53;;
2544;SDS011;36212;48.838;9.142;2022-07-01T14:52:07;2.03;;;1.50;;
2544;SDS011;36212;48.838;9.142;2022-07-01T14:54:39;3.87;;;1.90;;
2544;SDS011;36212;48.838;9.142;2022-07-01T14:57:12;1.90;;;1.80;;
2544;SDS011;36212;48.838;9.142;2022-07-01T14:59:44;1.87;;;1.43;;
2544;SDS011;36212;48.838;9.142;2022-07-01T15:02:17;2.00;;;1.70;;
2544;SDS011;36212;48.838;9.142;2022-07-01T15:04:50;1.43;;;1.33;;
2544;SDS011;36212;48.838;9.142;2022-07-01T15:07:23;1.90;;;1.80;;
2544;SDS011;36212;48.838;9.142;2022-07-01T15:09:55;1.80;;;1.70;;
2544;SDS011;36212;48.838;9.142;2022-07-01T15:12:32;1.63;;;1.53;;
2544;SDS011;36212;48.838;9.142;2022-07-01T15:15:04;2.27;;;1.70;;
2544;SDS011;36212;48.838;9.142;2022-07-01T15:17:41;1.40;;;1.30;;
2544;SDS011;36212;48.838;9.142;2022-07-01T15:20:17;4.60;;;1.60;;
2544;SDS011;36212;48.838;9.142;2022-07-01T15:22:51;1.50;;;1.40;;
2544;SDS011;36212;48.838;9.142;2022-07-01T15:25:23;1.70;;;1.60;;
2544;SDS011;36212;48.838;9.142;2022-07-01T15:27:55;2.63;;;1.50;;
2544;SDS011;36212;48.838;9.142;2022-07-01T15:30:28;2.03;;;1.30;;
2544;SDS011;36212;48.838;9.142;2022-07-01T15:33:00;1.47;;;1.37;;
2544;SDS011;36212;48.838;9.142;2022-07-01T15:35:32;1.60;;;1.40;;
2544;SDS011;36212;48.838;9.142;2022-07-01T15:38:05;1.70;;;1.43;;
2544;SDS011;36212;48.838;9.142;2022-07-01T15:40:37;1.90;;;1.80;;
2544;SDS011;36212;48.838;9.142;2022-07-01T15:43:09;1.60;;;1.50;;
2544;SDS011;36212;48.838;9.142;2022-07-01T15:46:16;1.53;;;1.43;;
2544;SDS011;36212;48.838;9.142;2022-07-01T15:48:49;1.40;;;1.10;;
2544;SDS011;36212;48.838;9.142;2022-07-01T15:51:21;1.40;;;1.30;;
2544;SDS011;36212;48.838;9.142;2022-07-01T15:53:57;1.50;;;1.40;;
2544;SDS011;36212;48.838;9.142;2022-07-01T15:56:32;1.63;;;1.53;;
2544;SDS011;36212;48.838;9.142;2022-07-01T15:59:07;1.60;;;1.50;;
2544;SDS011;36212;48.838;9.142;2022-07-01T16:01:39;2.40;;;2.20;;
2544;SDS011;36212;48.838;9.142;2022-07-01T16:04:11;5.00;;;1.50;;
2544;SDS011;36212;48.838;9.142;2022-07-01T16:06:43;1.63;;;1.53;;
2544;SDS011;36212;48.838;9.142;2022-07-01T16:09:17;1.47;;;1.37;;
2544;SDS011;36212;48.838;9.142;2022-07-01T16:11:50;2.00;;;1.63;;
2544;SDS011;36212;48.838;9.142;2022-07-01T16:14:25;1.80;;;1.70;;
2544;SDS011;36212;48.838;9.142;2022-07-01T16:17:00;1.60;;;1.50;;
2544;SDS011;36212;48.838;9.142;2022-07-01T16:19:36;1.40;;;1.30;;
2544;SDS011;36212;48.838;9.142;2022-07-01T16:22:11;1.60;;;1.50;;
2544;SDS011;36212;48.838;9.142;2022-07-01T16:24:47;1.60;;;1.50;;
2544;SDS011;36212;48.838;9.142;2022-07-01T16:27:20;2.33;;;1.60;;